Time;durP1;ratioP1;P1;durP2;ratioP2;P2;SDS_P1;SDS_P2;PMS_P1;PMS_P2;Temp;Humidity;BMP_temperature;BMP_pressure;BME280_temperature;BME280_humidity;BME280_pressure;Samples;Min_cycle;Max_cycle;Signal;HPM_P1;HPM_P2
2021/08/24 00:00:55;;;;;;;73.32;9.38;;;;;;;;;;5001487;28;20528;-52
2021/08/24 00:03:23;;;;;;;97.07;10.93;;;;;;;;;;4997562;28;20030;-50
2021/08/24 00:05:50;;;;;;;81.30;10.68;;;;;;;;;;5004591;28;20033;-48
2021/08/24 00:08:17;;;;;;;76.43;10.82;;;;;;;;;;5000845;28;20029;-50
2021/08/24 00:10:46;;;;;;;84.18;10.80;;;;;;;;;;5003231;28;20034;-47
2021/08/24 00:13:13;;;;;;;86.43;10.80;;;;;;;;;;5003272;28;20033;-54
2021/08/24 00:15:41;;;;;;;98.63;11.52;;;;;;;;;;5000154;28;20053;-50
2021/08/24 00:18:09;;;;;;;85.57;12.10;;;;;;;;;;5002329;28;20041;-52
2021/08/24 00:20:36;;;;;;;90.70;11.07;;;;;;;;;;4999547;28;20018;-54
2021/08/24 00:23:05;;;;;;;92.40;12.05;;;;;;;;;;5001368;28;20034;-54
2021/08/24 00:25:33;;;;;;;91.47;11.35;;;;;;;;;;5015868;28;20025;-50
2021/08/24 00:28:01;;;;;;;79.72;11.50;;;;;;;;;;4995728;28;20049;-54
2021/08/24 00:30:28;;;;;;;91.90;12.00;;;;;;;;;;5003383;28;20029;-56
2021/08/24 00:32:55;;;;;;;76.95;12.10;;;;;;;;;;4998101;28;20053;-56
2021/08/24 00:35:23;;;;;;;77.85;11.20;;;;;;;;;;5002930;28;20120;-56
2021/08/24 00:37:50;;;;;;;88.40;12.85;;;;;;;;;;5002902;28;20130;-55
2021/08/24 00:40:17;;;;;;;103.00;12.57;;;;;;;;;;5000090;28;20030;-56
2021/08/24 00:42:45;;;;;;;80.05;11.65;;;;;;;;;;5005131;28;20504;-55
2021/08/24 00:45:13;;;;;;;105.32;13.50;;;;;;;;;;5009706;28;20036;-56
2021/08/24 00:47:42;;;;;;;93.13;13.45;;;;;;;;;;5007170;28;20121;-55
2021/08/24 00:50:20;;;;;;;106.38;12.55;;;;;;;;;;5009092;28;20089;-52
2021/08/24 00:52:48;;;;;;;91.90;13.50;;;;;;;;;;5007560;28;20046;-55
2021/08/24 00:55:16;;;;;;;79.95;12.85;;;;;;;;;;5010133;28;20026;-54
2021/08/24 00:57:44;;;;;;;102.35;13.43;;;;;;;;;;5009642;28;20068;-55
2021/08/24 01:00:11;;;;;;;99.78;13.60;;;;;;;;;;5011311;28;20449;-56
2021/08/24 01:02:38;;;;;;;104.38;13.30;;;;;;;;;;5010489;28;20386;-51
2021/08/24 01:05:06;;;;;;;83.70;13.13;;;;;;;;;;5005596;28;20103;-54
2021/08/24 01:07:39;;;;;;;101.40;13.82;;;;;;;;;;5003839;28;20041;-57
2021/08/24 01:10:26;;;;;;;105.68;13.38;;;;;;;;;;5005744;28;20548;-53
2021/08/24 01:12:59;;;;;;;92.57;12.60;;;;;;;;;;5000325;28;20406;-53
2021/08/24 01:15:29;;;;;;;82.47;13.07;;;;;;;;;;5001291;28;20080;-57
2021/08/24 01:17:59;;;;;;;89.75;12.95;;;;;;;;;;5009176;28;20026;-55
2021/08/24 01:20:32;;;;;;;93.18;13.65;;;;;;;;;;5001574;28;20532;-56
2021/08/24 01:23:18;;;;;;;105.38;14.27;;;;;;;;;;5004013;28;20060;-53
2021/08/24 01:25:57;;;;;;;92.22;12.68;;;;;;;;;;5001447;28;20076;-55
2021/08/24 01:28:35;;;;;;;97.55;15.75;;;;;;;;;;5002004;28;20038;-56
2021/08/24 01:31:20;;;;;;;90.47;13.70;;;;;;;;;;5003350;28;20247;-56
2021/08/24 01:34:05;;;;;;;91.53;13.05;;;;;;;;;;4998643;28;20030;-52
2021/08/24 01:36:34;;;;;;;93.97;15.40;;;;;;;;;;5004781;28;20030;-49
2021/08/24 01:39:04;;;;;;;105.13;14.50;;;;;;;;;;5001818;28;20025;-54
2021/08/24 01:41:49;;;;;;;88.03;14.20;;;;;;;;;;4997059;28;20037;-51
2021/08/24 01:44:18;;;;;;;83.03;13.15;;;;;;;;;;4998936;28;20026;-55
2021/08/24 01:46:56;;;;;;;107.03;14.40;;;;;;;;;;4992669;28;20033;-57
2021/08/24 01:49:28;;;;;;;92.70;13.68;;;;;;;;;;4994874;28;20127;-57
2021/08/24 01:51:57;;;;;;;85.50;13.30;;;;;;;;;;4990483;28;20022;-57
2021/08/24 01:54:26;;;;;;;86.97;12.45;;;;;;;;;;4992176;28;20053;-57
2021/08/24 01:56:54;;;;;;;80.63;13.93;;;;;;;;;;4994449;28;20063;-55
2021/08/24 01:59:26;;;;;;;100.60;13.23;;;;;;;;;;5010650;28;20025;-58
2021/08/24 02:02:13;;;;;;;84.15;12.15;;;;;;;;;;4993592;28;20512;-57
2021/08/24 02:05:01;;;;;;;78.38;12.57;;;;;;;;;;4993357;28;20022;-54
2021/08/24 02:07:30;;;;;;;84.72;12.90;;;;;;;;;;4995982;28;20023;-57
2021/08/24 02:10:01;;;;;;;82.88;11.50;;;;;;;;;;4992901;28;20049;-56
2021/08/24 02:12:31;;;;;;;65.50;10.82;;;;;;;;;;4993833;28;20117;-54
2021/08/24 02:15:00;;;;;;;84.25;12.13;;;;;;;;;;4992074;28;20034;-57
2021/08/24 02:17:28;;;;;;;82.38;10.55;;;;;;;;;;4991263;28;20022;-55
2021/08/24 02:20:15;;;;;;;61.97;10.05;;;;;;;;;;4998676;28;20049;-57
2021/08/24 02:22:43;;;;;;;67.78;10.35;;;;;;;;;;4997452;28;20042;-56
2021/08/24 02:25:23;;;;;;;66.07;11.07;;;;;;;;;;5011623;28;20032;-58
2021/08/24 02:28:02;;;;;;;75.13;10.32;;;;;;;;;;5011574;28;20033;-57
2021/08/24 02:30:31;;;;;;;66.40;10.32;;;;;;;;;;5012124;28;20030;-57
2021/08/24 02:32:59;;;;;;;70.18;10.43;;;;;;;;;;5011479;28;20025;-59
2021/08/24 02:35:26;;;;;;;66.15;10.18;;;;;;;;;;5001997;28;20482;-57
2021/08/24 02:38:00;;;;;;;66.45;11.05;;;;;;;;;;5011341;28;20661;-58
2021/08/24 02:40:27;;;;;;;57.50;9.07;;;;;;;;;;5011118;28;20018;-56
2021/08/24 02:43:10;;;;;;;57.08;9.27;;;;;;;;;;5010325;28;20030;-58
2021/08/24 02:45:41;;;;;;;64.90;9.55;;;;;;;;;;5011725;28;20156;-57
2021/08/24 02:48:10;;;;;;;52.40;9.07;;;;;;;;;;5011639;28;20026;-57
2021/08/24 02:50:38;;;;;;;52.78;9.00;;;;;;;;;;5011893;28;20109;-57
2021/08/24 02:53:05;;;;;;;52.67;7.97;;;;;;;;;;5011194;28;20496;-58
2021/08/24 02:55:32;;;;;;;54.40;8.50;;;;;;;;;;5011565;28;20026;-58
2021/08/24 02:58:00;;;;;;;54.88;9.13;;;;;;;;;;5011719;28;20054;-58
2021/08/24 03:00:27;;;;;;;51.22;8.98;;;;;;;;;;5002282;28;20371;-57
2021/08/24 03:02:54;;;;;;;37.25;7.03;;;;;;;;;;5011467;28;20037;-58
2021/08/24 03:05:21;;;;;;;48.35;8.45;;;;;;;;;;5011326;28;20373;-58
2021/08/24 03:07:48;;;;;;;50.05;8.32;;;;;;;;;;5011414;28;20030;-58
2021/08/24 03:10:18;;;;;;;52.05;7.95;;;;;;;;;;5011374;28;20084;-58
2021/08/24 03:12:45;;;;;;;39.15;7.32;;;;;;;;;;5011665;28;20026;-58
2021/08/24 03:15:24;;;;;;;37.72;6.95;;;;;;;;;;5013983;28;20036;-58
2021/08/24 03:18:01;;;;;;;41.20;6.45;;;;;;;;;;5015101;28;20486;-59
2021/08/24 03:20:30;;;;;;;39.63;6.93;;;;;;;;;;5015371;28;20105;-59
2021/08/24 03:22:58;;;;;;;39.10;6.22;;;;;;;;;;5015019;28;20033;-58
2021/08/24 03:25:26;;;;;;;41.50;6.78;;;;;;;;;;5015107;28;20029;-59
2021/08/24 03:27:53;;;;;;;34.05;5.85;;;;;;;;;;5013473;28;20037;-58
2021/08/24 03:30:22;;;;;;;41.72;6.95;;;;;;;;;;5015075;28;20030;-59
2021/08/24 03:32:49;;;;;;;31.35;5.63;;;;;;;;;;5014942;28;20029;-57
2021/08/24 03:35:17;;;;;;;33.95;6.53;;;;;;;;;;5015050;28;20022;-57
2021/08/24 03:37:44;;;;;;;41.47;6.20;;;;;;;;;;5014759;28;20473;-59
2021/08/24 03:40:12;;;;;;;40.45;6.13;;;;;;;;;;5015066;28;20041;-59
2021/08/24 03:42:39;;;;;;;35.67;6.80;;;;;;;;;;5013480;28;20057;-58
2021/08/24 03:45:07;;;;;;;37.30;5.57;;;;;;;;;;5014625;28;20378;-58
2021/08/24 03:47:35;;;;;;;32.63;6.05;;;;;;;;;;5014766;28;20369;-55
2021/08/24 03:50:02;;;;;;;30.85;6.00;;;;;;;;;;5014685;28;20424;-57
2021/08/24 03:52:29;;;;;;;37.78;5.82;;;;;;;;;;5013345;28;20018;-58
2021/08/24 03:54:56;;;;;;;27.70;5.75;;;;;;;;;;5014593;28;20465;-56
2021/08/24 03:57:23;;;;;;;37.95;5.20;;;;;;;;;;5013341;28;20029;-58
2021/08/24 03:59:53;;;;;;;33.95;5.80;;;;;;;;;;5014204;28;20470;-57
2021/08/24 04:02:24;;;;;;;29.42;5.32;;;;;;;;;;5014309;28;20136;-56
2021/08/24 04:04:52;;;;;;;31.67;5.50;;;;;;;;;;5014518;28;20373;-58
2021/08/24 04:07:19;;;;;;;25.45;5.07;;;;;;;;;;5014435;28;20132;-60
2021/08/24 04:09:46;;;;;;;21.85;4.53;;;;;;;;;;5014415;28;20026;-58
2021/08/24 04:12:16;;;;;;;28.23;5.25;;;;;;;;;;5014173;28;20030;-57
2021/08/24 04:14:43;;;;;;;27.33;5.25;;;;;;;;;;5013921;28;20096;-58
2021/08/24 04:17:10;;;;;;;23.52;4.78;;;;;;;;;;5014336;28;20521;-57
2021/08/24 04:19:38;;;;;;;30.48;5.43;;;;;;;;;;5014318;28;20029;-58
2021/08/24 04:22:09;;;;;;;25.67;4.72;;;;;;;;;;5014018;28;20034;-58
2021/08/24 04:24:36;;;;;;;24.63;5.00;;;;;;;;;;5013571;28;20041;-58
2021/08/24 04:27:03;;;;;;;24.33;5.07;;;;;;;;;;5014086;28;20397;-58
2021/08/24 04:29:31;;;;;;;22.90;4.63;;;;;;;;;;5013807;28;20116;-58
2021/08/24 04:31:58;;;;;;;24.00;4.82;;;;;;;;;;5013782;28;20492;-58
2021/08/24 04:34:25;;;;;;;20.17;4.53;;;;;;;;;;5013849;28;20101;-56
2021/08/24 04:36:55;;;;;;;19.92;3.95;;;;;;;;;;5014073;28;20022;-58
2021/08/24 04:39:22;;;;;;;20.05;4.55;;;;;;;;;;5013624;28;20029;-57
2021/08/24 04:41:49;;;;;;;19.75;4.22;;;;;;;;;;5013776;28;20030;-57
2021/08/24 04:44:19;;;;;;;21.17;3.80;;;;;;;;;;5013845;28;20018;-56
2021/08/24 04:46:47;;;;;;;19.05;4.25;;;;;;;;;;5013514;28;20068;-56
2021/08/24 04:49:14;;;;;;;17.67;3.55;;;;;;;;;;5013512;28;20414;-55
2021/08/24 04:51:41;;;;;;;17.50;3.90;;;;;;;;;;5013564;28;20033;-55
2021/08/24 04:54:08;;;;;;;19.95;4.57;;;;;;;;;;5013554;28;20441;-56
2021/08/24 04:56:35;;;;;;;17.25;3.60;;;;;;;;;;5013184;28;20021;-55
2021/08/24 04:59:02;;;;;;;17.90;3.65;;;;;;;;;;5012211;28;20030;-54
2021/08/24 05:01:29;;;;;;;16.75;3.75;;;;;;;;;;5012942;28;20552;-53
2021/08/24 05:03:56;;;;;;;14.77;3.42;;;;;;;;;;5013200;28;20049;-54
2021/08/24 05:06:23;;;;;;;17.58;4.05;;;;;;;;;;5013354;28;20485;-54
2021/08/24 05:08:51;;;;;;;13.63;3.10;;;;;;;;;;5012959;28;20382;-57
2021/08/24 05:11:18;;;;;;;13.18;3.22;;;;;;;;;;5012936;28;20037;-57
2021/08/24 05:13:45;;;;;;;13.25;3.05;;;;;;;;;;5013149;28;20096;-54
2021/08/24 05:16:12;;;;;;;12.40;3.08;;;;;;;;;;5012766;28;20036;-55
2021/08/24 05:18:40;;;;;;;13.07;3.17;;;;;;;;;;5013165;28;20469;-56
2021/08/24 05:21:08;;;;;;;12.32;3.05;;;;;;;;;;5013062;28;20457;-58
2021/08/24 05:23:36;;;;;;;16.70;3.75;;;;;;;;;;5013009;28;20022;-58
2021/08/24 05:26:10;;;;;;;7.22;2.55;;;;;;;;;;5012654;28;20030;-57
2021/08/24 05:28:37;;;;;;;13.45;2.78;;;;;;;;;;5012782;28;20108;-58
2021/08/24 05:31:05;;;;;;;12.38;2.97;;;;;;;;;;5012838;28;20025;-58
2021/08/24 05:33:32;;;;;;;12.23;2.53;;;;;;;;;;5012871;28;20014;-58
2021/08/24 05:36:00;;;;;;;11.40;2.92;;;;;;;;;;5011988;28;20034;-57
2021/08/24 05:38:28;;;;;;;11.85;2.90;;;;;;;;;;5011549;28;20374;-57
2021/08/24 05:40:56;;;;;;;14.25;2.53;;;;;;;;;;5012502;28;20037;-58
2021/08/24 05:43:23;;;;;;;12.18;3.10;;;;;;;;;;5012511;28;20030;-57
2021/08/24 05:45:57;;;;;;;11.93;3.22;;;;;;;;;;5012634;28;20109;-56
2021/08/24 05:48:26;;;;;;;10.18;2.40;;;;;;;;;;5011292;28;20022;-58
2021/08/24 05:50:53;;;;;;;13.40;2.55;;;;;;;;;;5012645;28;20478;-56
2021/08/24 05:53:20;;;;;;;14.48;3.05;;;;;;;;;;5012218;28;20056;-57
2021/08/24 05:55:47;;;;;;;10.35;2.70;;;;;;;;;;5012570;28;20029;-57
2021/08/24 05:58:14;;;;;;;6.95;2.08;;;;;;;;;;5010948;28;20104;-58
2021/08/24 06:00:42;;;;;;;9.85;2.38;;;;;;;;;;5012323;28;20032;-59
2021/08/24 06:03:09;;;;;;;11.63;2.70;;;;;;;;;;5012253;28;20034;-56
2021/08/24 06:05:42;;;;;;;9.63;2.00;;;;;;;;;;5012365;28;20025;-59
2021/08/24 06:08:09;;;;;;;9.77;2.40;;;;;;;;;;5012158;28;20032;-58
2021/08/24 06:10:37;;;;;;;9.25;2.50;;;;;;;;;;5012037;28;20048;-59
2021/08/24 06:13:05;;;;;;;9.50;2.20;;;;;;;;;;5012158;28;20351;-58
2021/08/24 06:15:32;;;;;;;7.32;2.08;;;;;;;;;;5012002;28;20032;-57
2021/08/24 06:18:00;;;;;;;8.95;2.13;;;;;;;;;;5012074;28;20014;-57
2021/08/24 06:20:27;;;;;;;13.00;3.05;;;;;;;;;;5012013;28;20026;-59
2021/08/24 06:22:55;;;;;;;8.25;2.10;;;;;;;;;;5011778;28;20096;-58
2021/08/24 06:25:22;;;;;;;7.82;1.90;;;;;;;;;;5011898;28;20113;-58
2021/08/24 06:27:53;;;;;;;9.63;2.22;;;;;;;;;;5012065;28;20363;-58
2021/08/24 06:30:20;;;;;;;7.30;2.20;;;;;;;;;;5011803;28;20492;-59
2021/08/24 06:32:49;;;;;;;9.30;2.20;;;;;;;;;;5011847;28;20026;-58
2021/08/24 06:35:18;;;;;;;6.90;2.22;;;;;;;;;;5010850;28;20022;-59
2021/08/24 06:37:46;;;;;;;5.15;1.65;;;;;;;;;;5011556;28;20033;-58
2021/08/24 06:40:15;;;;;;;6.57;1.73;;;;;;;;;;5012008;28;20025;-56
2021/08/24 06:42:49;;;;;;;9.38;1.92;;;;;;;;;;5011812;28;20125;-58
2021/08/24 06:45:19;;;;;;;8.80;2.10;;;;;;;;;;4999251;28;20029;-58
2021/08/24 06:47:46;;;;;;;8.68;2.03;;;;;;;;;;5011834;28;20033;-57
2021/08/24 06:50:13;;;;;;;7.78;1.85;;;;;;;;;;5015468;28;20067;-57
2021/08/24 06:52:40;;;;;;;8.25;1.45;;;;;;;;;;5016026;28;20018;-57
2021/08/24 06:55:09;;;;;;;7.82;1.90;;;;;;;;;;5014304;28;20105;-57
2021/08/24 06:57:36;;;;;;;6.10;1.70;;;;;;;;;;5015852;28;20355;-59
2021/08/24 07:00:06;;;;;;;7.10;1.95;;;;;;;;;;5015528;28;20021;-57
2021/08/24 07:02:33;;;;;;;8.50;1.55;;;;;;;;;;5014056;28;20056;-57
2021/08/24 07:05:01;;;;;;;6.03;1.52;;;;;;;;;;5013832;28;20022;-57
2021/08/24 07:07:28;;;;;;;4.13;1.38;;;;;;;;;;5015735;28;20044;-57
2021/08/24 07:09:55;;;;;;;6.07;1.73;;;;;;;;;;5015496;28;20029;-57
2021/08/24 07:12:22;;;;;;;5.78;1.50;;;;;;;;;;5015361;28;20026;-57
2021/08/24 07:14:49;;;;;;;4.65;1.60;;;;;;;;;;5015587;28;20021;-57
2021/08/24 07:17:17;;;;;;;6.40;1.60;;;;;;;;;;5015175;28;20470;-57
2021/08/24 07:19:44;;;;;;;6.15;1.38;;;;;;;;;;5015270;28;20056;-56
2021/08/24 07:22:11;;;;;;;5.85;1.80;;;;;;;;;;5015334;28;20026;-56
2021/08/24 07:24:38;;;;;;;5.55;1.48;;;;;;;;;;5015294;28;20041;-52
2021/08/24 07:27:05;;;;;;;4.65;1.55;;;;;;;;;;5015233;28;20033;-56
2021/08/24 07:29:32;;;;;;;5.43;1.40;;;;;;;;;;5014944;28;20042;-54
2021/08/24 07:31:59;;;;;;;8.02;1.50;;;;;;;;;;5015249;28;20026;-54
2021/08/24 07:34:26;;;;;;;4.80;1.13;;;;;;;;;;5014686;28;20026;-55
2021/08/24 07:36:54;;;;;;;3.95;1.20;;;;;;;;;;5015087;28;20080;-55
2021/08/24 07:39:21;;;;;;;5.20;1.40;;;;;;;;;;5015135;28;20022;-55
2021/08/24 07:41:48;;;;;;;6.65;1.92;;;;;;;;;;5014754;28;20442;-58
2021/08/24 07:44:15;;;;;;;6.65;1.50;;;;;;;;;;5015006;28;20021;-55
2021/08/24 07:46:42;;;;;;;5.10;1.55;;;;;;;;;;5014759;28;20044;-57
2021/08/24 07:49:09;;;;;;;4.20;1.08;;;;;;;;;;5014737;28;20482;-54
2021/08/24 07:51:36;;;;;;;7.40;1.92;;;;;;;;;;5014520;28;20026;-56
2021/08/24 07:54:04;;;;;;;2.53;0.90;;;;;;;;;;5015014;28;20018;-54
2021/08/24 07:56:31;;;;;;;6.75;1.55;;;;;;;;;;5013291;28;20125;-57
2021/08/24 07:58:58;;;;;;;3.22;1.13;;;;;;;;;;5014076;28;20022;-57
2021/08/24 08:01:25;;;;;;;3.78;1.00;;;;;;;;;;5014555;28;20037;-57
2021/08/24 08:03:52;;;;;;;4.55;1.08;;;;;;;;;;5014377;28;20090;-56
2021/08/24 08:06:19;;;;;;;4.57;1.40;;;;;;;;;;5013295;28;20613;-57
2021/08/24 08:08:46;;;;;;;4.68;1.50;;;;;;;;;;5014379;28;20377;-59
2021/08/24 08:11:13;;;;;;;4.53;1.27;;;;;;;;;;5014321;28;20127;-56
2021/08/24 08:13:40;;;;;;;7.00;1.48;;;;;;;;;;5014314;28;20523;-57
2021/08/24 08:16:08;;;;;;;8.50;1.20;;;;;;;;;;5014461;28;20061;-57
2021/08/24 08:18:35;;;;;;;3.38;1.15;;;;;;;;;;5014107;28;20026;-58
2021/08/24 08:21:02;;;;;;;3.45;1.30;;;;;;;;;;5013979;28;20505;-58
2021/08/24 08:23:29;;;;;;;3.70;1.13;;;;;;;;;;5014290;28;20088;-58
2021/08/24 08:25:56;;;;;;;3.88;0.88;;;;;;;;;;5013986;28;20014;-57
2021/08/24 08:28:23;;;;;;;3.85;1.20;;;;;;;;;;5013905;28;20057;-58
2021/08/24 08:30:50;;;;;;;5.20;1.15;;;;;;;;;;5013763;28;20033;-58
2021/08/24 08:33:17;;;;;;;5.05;0.90;;;;;;;;;;5014001;28;20026;-58
2021/08/24 08:35:44;;;;;;;7.63;1.10;;;;;;;;;;5013687;28;20030;-56
2021/08/24 08:38:12;;;;;;;3.65;0.95;;;;;;;;;;5014102;28;20014;-58
2021/08/24 08:40:38;;;;;;;4.07;0.90;;;;;;;;;;5013811;28;20076;-58
2021/08/24 08:43:17;;;;;;;3.15;0.82;;;;;;;;;;5013584;28;20096;-58
2021/08/24 08:45:49;;;;;;;5.10;1.10;;;;;;;;;;5012348;28;20032;-57
2021/08/24 08:48:19;;;;;;;3.47;1.25;;;;;;;;;;5013909;28;20022;-57
2021/08/24 08:51:02;;;;;;;2.60;0.80;;;;;;;;;;5013829;28;20493;-59
2021/08/24 08:53:54;;;;;;;4.70;0.93;;;;;;;;;;5013641;28;20053;-57
2021/08/24 08:56:35;;;;;;;1.92;0.93;;;;;;;;;;5013375;28;20033;-58
2021/08/24 08:59:16;;;;;;;3.22;1.00;;;;;;;;;;5013801;28;20022;-58
2021/08/24 09:01:46;;;;;;;2.72;0.90;;;;;;;;;;5013120;28;20025;-59
2021/08/24 09:04:17;;;;;;;3.08;0.80;;;;;;;;;;5013544;28;20037;-58
2021/08/24 09:06:46;;;;;;;3.00;0.90;;;;;;;;;;5013012;28;20072;-58
2021/08/24 09:09:13;;;;;;;2.25;0.80;;;;;;;;;;5012004;28;20068;-58
2021/08/24 09:11:46;;;;;;;3.63;0.90;;;;;;;;;;5012408;28;20481;-57
2021/08/24 09:14:31;;;;;;;3.55;0.95;;;;;;;;;;5013074;28;20033;-58
2021/08/24 09:17:01;;;;;;;5.25;0.80;;;;;;;;;;5012994;28;20026;-59
2021/08/24 09:19:42;;;;;;;2.40;0.70;;;;;;;;;;5013336;28;20030;-58
2021/08/24 09:22:10;;;;;;;4.28;0.73;;;;;;;;;;5011739;28;20125;-59
2021/08/24 09:24:37;;;;;;;2.15;0.80;;;;;;;;;;5013071;28;20021;-56
2021/08/24 09:27:10;;;;;;;3.53;0.70;;;;;;;;;;5013416;28;20052;-58
2021/08/24 09:29:48;;;;;;;2.75;0.70;;;;;;;;;;5011589;28;20129;-58
2021/08/24 09:32:19;;;;;;;3.95;0.80;;;;;;;;;;5012828;28;20021;-58
2021/08/24 09:34:48;;;;;;;4.57;1.15;;;;;;;;;;5013044;28;20030;-58
2021/08/24 09:37:17;;;;;;;1.35;0.85;;;;;;;;;;5011593;28;20034;-58
2021/08/24 09:39:48;;;;;;;2.05;0.70;;;;;;;;;;5012539;28;20469;-57
2021/08/24 09:42:16;;;;;;;4.45;0.82;;;;;;;;;;5009603;28;20463;-56
2021/08/24 09:44:43;;;;;;;2.90;0.80;;;;;;;;;;5011334;28;20041;-56
2021/08/24 09:47:17;;;;;;;3.53;1.25;;;;;;;;;;5012493;28;20025;-57
2021/08/24 09:49:44;;;;;;;4.53;0.82;;;;;;;;;;5012487;28;20018;-57
2021/08/24 09:52:25;;;;;;;3.97;1.10;;;;;;;;;;5012463;28;20104;-56
2021/08/24 09:55:04;;;;;;;4.55;0.90;;;;;;;;;;5010815;28;20046;-56
2021/08/24 09:57:33;;;;;;;14.20;1.23;;;;;;;;;;5012438;28;20117;-56
2021/08/24 10:00:04;;;;;;;5.07;1.00;;;;;;;;;;5012029;28;20393;-57
2021/08/24 10:02:39;;;;;;;5.13;0.90;;;;;;;;;;5011116;28;20143;-56
2021/08/24 10:05:09;;;;;;;2.90;1.00;;;;;;;;;;5010933;28;20041;-56
2021/08/24 10:07:41;;;;;;;2.85;0.93;;;;;;;;;;5011380;28;20026;-56
2021/08/24 10:10:10;;;;;;;6.63;0.90;;;;;;;;;;5011882;28;20425;-54
2021/08/24 10:12:38;;;;;;;8.60;1.10;;;;;;;;;;5012384;28;20018;-56
2021/08/24 10:15:20;;;;;;;5.28;1.00;;;;;;;;;;5012301;28;20029;-57
2021/08/24 10:17:47;;;;;;;4.80;1.33;;;;;;;;;;5012200;28;20022;-57
2021/08/24 10:20:22;;;;;;;3.53;0.90;;;;;;;;;;5011890;28;20018;-57
2021/08/24 10:22:51;;;;;;;7.40;1.08;;;;;;;;;;5010418;28;20092;-58
2021/08/24 10:25:21;;;;;;;8.77;1.20;;;;;;;;;;5012234;28;20026;-56
2021/08/24 10:28:08;;;;;;;3.97;0.80;;;;;;;;;;4996984;28;20105;-55
2021/08/24 10:30:38;;;;;;;7.25;0.90;;;;;;;;;;5005337;28;20041;-61
2021/08/24 10:33:05;;;;;;;5.55;0.90;;;;;;;;;;5006458;28;20504;-58
2021/08/24 10:35:34;;;;;;;4.80;1.10;;;;;;;;;;4995392;28;20034;-57
2021/08/24 10:38:01;;;;;;;9.05;1.05;;;;;;;;;;5000539;28;20391;-55
2021/08/24 10:40:45;;;;;;;7.13;1.00;;;;;;;;;;5010240;28;20028;-57
2021/08/24 10:43:13;;;;;;;6.53;1.40;;;;;;;;;;5010447;28;20080;-47
2021/08/24 10:45:42;;;;;;;8.75;1.10;;;;;;;;;;5007788;28;20100;-52
2021/08/24 10:48:17;;;;;;;9.00;1.13;;;;;;;;;;5010675;28;20441;-50
2021/08/24 10:50:50;;;;;;;7.80;1.45;;;;;;;;;;5009522;28;20025;-52
2021/08/24 10:53:23;;;;;;;9.85;1.02;;;;;;;;;;5009791;28;20041;-53
2021/08/24 10:55:54;;;;;;;9.18;1.40;;;;;;;;;;5010683;28;20022;-52
2021/08/24 10:58:29;;;;;;;11.60;1.50;;;;;;;;;;5011575;28;20018;-51
2021/08/24 11:01:02;;;;;;;12.77;1.40;;;;;;;;;;5011509;28;20453;-52
2021/08/24 11:03:48;;;;;;;16.02;1.60;;;;;;;;;;5011439;28;20373;-48
2021/08/24 11:06:33;;;;;;;12.23;1.70;;;;;;;;;;5011483;28;20034;-49
2021/08/24 11:09:09;;;;;;;16.98;1.50;;;;;;;;;;5000324;28;20061;-51
2021/08/24 11:11:59;;;;;;;13.68;1.55;;;;;;;;;;5002060;28;20053;-57
2021/08/24 11:14:35;;;;;;;18.75;1.90;;;;;;;;;;5001651;28;20550;-53
2021/08/24 11:17:14;;;;;;;43.92;2.08;;;;;;;;;;4996546;28;20038;-44
2021/08/24 11:19:40;;;;;;;;;;;;;;;;;;4994065;28;20491;-43
2021/08/24 11:22:07;;;;;;;;;;;;;;;;;;5003274;28;19925;-46
2021/08/24 11:24:33;;;;;;;;;;;;;;;;;;5010943;28;20506;-45
2021/08/24 11:27:07;;;;;;;122.25;7.55;;;;;;;;;;5008288;28;20417;-37
2021/08/24 11:29:43;;;;;;;103.13;7.05;;;;;;;;;;5000034;28;20502;-43
2021/08/24 11:32:29;;;;;;;72.90;6.47;;;;;;;;;;4995171;28;20046;-40
2021/08/24 11:34:58;;;;;;;138.88;12.13;;;;;;;;;;4998320;28;20030;-46
2021/08/24 11:37:32;;;;;;;96.25;6.93;;;;;;;;;;5013272;28;20022;-45
2021/08/24 11:40:02;;;;;;;58.75;8.35;;;;;;;;;;5012961;28;20025;-49
2021/08/24 11:42:32;;;;;;;78.90;7.40;;;;;;;;;;5012988;28;20520;-52
2021/08/24 11:45:00;;;;;;;100.90;9.30;;;;;;;;;;5012246;28;20018;-43
2021/08/24 11:47:33;;;;;;;94.95;9.85;;;;;;;;;;5013738;28;20014;-43
2021/08/24 11:50:02;;;;;;;86.13;7.82;;;;;;;;;;5005188;28;20025;-45
2021/08/24 11:52:37;;;;;;;90.43;9.38;;;;;;;;;;5013501;28;20095;-49
2021/08/24 11:55:14;;;;;;;91.45;9.55;;;;;;;;;;5004081;28;20025;-43
2021/08/24 11:57:47;;;;;;;125.72;10.35;;;;;;;;;;5012540;28;20532;-40
2021/08/24 12:00:16;;;;;;;74.43;10.27;;;;;;;;;;5004898;28;20101;-43
2021/08/24 12:02:48;;;;;;;104.53;10.45;;;;;;;;;;5014077;28;20549;-42
2021/08/24 12:05:23;;;;;;;93.50;9.93;;;;;;;;;;5003481;28;20022;-40
2021/08/24 12:07:56;;;;;;;88.18;10.27;;;;;;;;;;5008888;28;20033;-42
2021/08/24 12:10:28;;;;;;;73.28;9.32;;;;;;;;;;4998873;28;20194;-41
2021/08/24 12:12:58;;;;;;;80.05;8.57;;;;;;;;;;5012361;28;20046;-41
2021/08/24 12:15:30;;;;;;;62.22;8.27;;;;;;;;;;5007666;28;20481;-37
2021/08/24 12:18:12;;;;;;;67.57;8.65;;;;;;;;;;4994633;28;20030;-43
2021/08/24 12:20:45;;;;;;;64.25;8.25;;;;;;;;;;5010310;28;20493;-40
2021/08/24 12:23:14;;;;;;;52.28;7.93;;;;;;;;;;5013667;28;20120;-40
2021/08/24 12:25:43;;;;;;;54.28;6.93;;;;;;;;;;5000723;28;20030;-39
2021/08/24 12:28:16;;;;;;;53.40;7.20;;;;;;;;;;5193737;22;20085;-52
2021/08/24 12:31:09;;;;;;;53.03;7.45;;;;;;;;;;5031196;28;20037;-41
2021/08/24 12:33:43;;;;;;;49.42;7.00;;;;;;;;;;5017121;28;20522;-41
2021/08/24 12:36:22;;;;;;;49.45;6.50;;;;;;;;;;5028467;28;20057;-43
2021/08/24 12:38:55;;;;;;;52.60;6.38;;;;;;;;;;5032655;28;20021;-39
2021/08/24 12:41:37;;;;;;;52.78;6.90;;;;;;;;;;5032325;28;20030;-41
2021/08/24 12:44:04;;;;;;;;;;;;;;;;;;5032991;28;20465;-39
2021/08/24 12:46:32;;;;;;;52.28;6.05;;;;;;;;;;5031824;28;19912;-42
2021/08/24 12:49:18;;;;;;;46.13;6.97;;;;;;;;;;5031688;28;20029;-44
2021/08/24 12:51:49;;;;;;;47.70;6.72;;;;;;;;;;5032712;28;20018;-41
2021/08/24 12:54:17;;;;;;;50.88;7.05;;;;;;;;;;5031834;28;20048;-39
2021/08/24 12:56:46;;;;;;;62.30;7.20;;;;;;;;;;5027086;28;20189;-35
2021/08/24 12:59:29;;;;;;;50.55;6.95;;;;;;;;;;5029918;28;20036;-36
2021/08/24 13:02:11;;;;;;;41.08;5.93;;;;;;;;;;5025102;28;20036;-37
2021/08/24 13:04:39;;;;;;;67.07;7.05;;;;;;;;;;5027528;28;20029;-36
2021/08/24 13:07:20;;;;;;;48.13;6.72;;;;;;;;;;5031526;28;20040;-39
2021/08/24 13:09:53;;;;;;;57.38;7.15;;;;;;;;;;5029761;28;20108;-37
2021/08/24 13:12:40;;;;;;;39.42;5.13;;;;;;;;;;5030861;28;20021;-45
2021/08/24 13:15:30;;;;;;;37.70;5.82;;;;;;;;;;5031949;28;20100;-35
2021/08/24 13:18:09;;;;;;;50.55;6.25;;;;;;;;;;5031752;28;20029;-35
2021/08/24 13:20:41;;;;;;;34.42;6.20;;;;;;;;;;5029013;28;20495;-36
2021/08/24 13:23:08;;;;;;;36.97;5.90;;;;;;;;;;5032022;28;20030;-35
2021/08/24 13:25:36;;;;;;;37.85;5.32;;;;;;;;;;5031856;28;20013;-38
2021/08/24 13:28:05;;;;;;;34.05;5.72;;;;;;;;;;5026332;28;20022;-39
2021/08/24 13:30:40;;;;;;;33.90;5.82;;;;;;;;;;5010944;28;20057;-36
2021/08/24 13:33:27;;;;;;;32.42;5.68;;;;;;;;;;5009336;28;20053;-36
2021/08/24 13:36:06;;;;;;;50.05;6.60;;;;;;;;;;5011043;28;20025;-35
2021/08/24 13:38:35;;;;;;;49.85;6.38;;;;;;;;;;5011336;28;20022;-40
2021/08/24 13:41:21;;;;;;;38.60;6.60;;;;;;;;;;5010982;28;20435;-37
2021/08/24 13:43:53;;;;;;;44.88;7.15;;;;;;;;;;5007968;28;20120;-40
2021/08/24 13:46:29;;;;;;;45.35;6.15;;;;;;;;;;5010632;28;20041;-39
2021/08/24 13:48:57;;;;;;;35.33;6.50;;;;;;;;;;5009941;28;20120;-41
2021/08/24 13:51:24;;;;;;;36.75;6.55;;;;;;;;;;5010908;28;20101;-39
2021/08/24 13:53:52;;;;;;;38.10;5.75;;;;;;;;;;5010519;28;20022;-35
2021/08/24 13:56:29;;;;;;;39.35;6.20;;;;;;;;;;5009230;28;20025;-38
2021/08/24 13:58:59;;;;;;;44.50;6.55;;;;;;;;;;5010963;28;20026;-36
2021/08/24 14:01:28;;;;;;;50.17;6.90;;;;;;;;;;5011540;28;20465;-39
2021/08/24 14:04:15;;;;;;;45.45;6.38;;;;;;;;;;5010356;28;20049;-38
2021/08/24 14:06:45;;;;;;;46.80;7.28;;;;;;;;;;5002736;28;20030;-36
2021/08/24 14:09:14;;;;;;;44.80;6.57;;;;;;;;;;5008756;28;20036;-37
2021/08/24 14:11:41;;;;;;;46.40;6.60;;;;;;;;;;5010690;28;20402;-36
2021/08/24 14:14:08;;;;;;;53.72;7.75;;;;;;;;;;5008300;28;20025;-38
2021/08/24 14:16:37;;;;;;;42.15;6.97;;;;;;;;;;5011062;28;20021;-38
2021/08/24 14:19:10;;;;;;;49.92;6.78;;;;;;;;;;5008812;28;20034;-37
2021/08/24 14:21:39;;;;;;;45.97;6.38;;;;;;;;;;5009172;28;20038;-36
2021/08/24 14:24:14;;;;;;;49.30;6.45;;;;;;;;;;5010651;28;20029;-36
2021/08/24 14:26:49;;;;;;;78.90;9.90;;;;;;;;;;5010116;28;20048;-36
2021/08/24 14:29:19;;;;;;;60.38;7.72;;;;;;;;;;5010820;28;20078;-36
2021/08/24 14:31:47;;;;;;;57.75;6.97;;;;;;;;;;5006907;28;20018;-38
2021/08/24 14:34:23;;;;;;;68.75;8.45;;;;;;;;;;5010177;28;20381;-38
2021/08/24 14:37:07;;;;;;;54.35;7.15;;;;;;;;;;5009743;28;20080;-38
2021/08/24 14:39:40;;;;;;;207.10;14.30;;;;;;;;;;5010777;28;20029;-38
2021/08/24 14:42:09;;;;;;;101.55;9.77;;;;;;;;;;5009904;28;20477;-38
2021/08/24 14:44:41;;;;;;;69.03;7.85;;;;;;;;;;5007222;28;20384;-37
2021/08/24 14:47:26;;;;;;;66.78;7.10;;;;;;;;;;5004094;28;20038;-37
2021/08/24 14:49:54;;;;;;;44.50;6.65;;;;;;;;;;5009643;28;20033;-37
2021/08/24 14:52:39;;;;;;;50.28;6.97;;;;;;;;;;5010395;28;20026;-37
2021/08/24 14:55:18;;;;;;;43.35;5.80;;;;;;;;;;5009832;28;20885;-38